createdAt,value
2023-05-14T00:24:27.765Z,89.94
2023-05-14T00:52:51.370Z,95.75
2023-05-14T01:21:07.653Z,98.7
2023-05-14T01:49:27.770Z,98.63
2023-05-14T02:17:48.235Z,97.1
2023-05-14T02:46:03.133Z,99.87
2023-05-14T03:14:31.894Z,100
2023-05-14T03:42:48.189Z,100
2023-05-14T04:11:08.535Z,100
2023-05-14T04:39:36.463Z,99.79
2023-05-14T05:07:58.989Z,98.86
2023-05-14T05:36:18.702Z,94.89
2023-05-14T06:04:46.500Z,96.05
2023-05-14T06:33:39.037Z,96.3
2023-05-14T07:02:49.948Z,81.17
2023-05-14T07:31:46.834Z,73.45
2023-05-14T08:00:44.214Z,68.72
2023-05-14T08:30:02.786Z,73.14
2023-05-14T08:59:04.930Z,54.98
2023-05-14T09:28:01.701Z,58.15
2023-05-14T09:56:49.613Z,50.92
2023-05-14T10:25:16.731Z,52.53
2023-05-14T10:54:26.794Z,48.17
2023-05-14T11:23:22.977Z,46.86
2023-05-14T11:52:22.872Z,46.91
2023-05-14T12:21:09.297Z,41.77
2023-05-14T12:50:10.694Z,43.78
2023-05-14T13:19:08.764Z,51.5
2023-05-14T13:47:34.851Z,52.88
2023-05-14T14:16:50.431Z,45.27
2023-05-14T14:45:10.264Z,51.09
2023-05-14T15:13:48.069Z,45.84
2023-05-14T15:42:05.332Z,44.17
2023-05-14T16:10:27.797Z,44.36
2023-05-14T17:07:39.365Z,44.92
2023-05-14T17:36:02.578Z,47.8
2023-05-14T18:04:22.628Z,51.24
2023-05-14T18:32:45.356Z,54.45
2023-05-14T19:00:56.534Z,64.18
2023-05-14T19:29:06.607Z,70.28
2023-05-14T19:57:23.290Z,72.27
2023-05-14T20:25:46.190Z,73.97
2023-05-14T20:53:59.755Z,78.17
2023-05-14T21:22:19.640Z,85.36
2023-05-14T21:50:32.245Z,86.83
2023-05-14T22:18:40.119Z,90.2
2023-05-14T22:47:02.422Z,92.52
2023-05-14T23:15:24.606Z,93.9
2023-05-14T23:43:37.630Z,96.67
